sensor_id;sensor_type;location;lat;lon;timestamp;pressure;altitude;pressure_sealevel;temperature;humidity
44001;BME280;29660;42.892;24.710;2023-09-08T00:01:39;97563.66;;;15.23;100.00
44001;BME280;29660;42.892;24.710;2023-09-08T00:07:02;97563.06;;;15.12;100.00
44001;BME280;29660;42.892;24.710;2023-09-08T00:12:24;97565.75;;;15.12;100.00
44001;BME280;29660;42.892;24.710;2023-09-08T00:17:46;97551.47;;;14.89;100.00
44001;BME280;29660;42.892;24.710;2023-09-08T00:23:09;97556.69;;;14.86;100.00
44001;BME280;29660;42.892;24.710;2023-09-08T00:28:31;97566.03;;;14.75;100.00
44001;BME280;29660;42.892;24.710;2023-09-08T00:33:54;97565.94;;;14.66;100.00
44001;BME280;29660;42.892;24.710;2023-09-08T00:39:16;97537.88;;;14.44;100.00
44001;BME280;29660;42.892;24.710;2023-09-08T00:44:38;97584.63;;;14.57;100.00
44001;BME280;29660;42.892;24.710;2023-09-08T00:50:04;97579.13;;;14.48;100.00
44001;BME280;29660;42.892;24.710;2023-09-08T00:55:27;97581.38;;;14.41;100.00
44001;BME280;29660;42.892;24.710;2023-09-08T01:00:49;97583.66;;;14.34;100.00
44001;BME280;29660;42.892;24.710;2023-09-08T01:06:12;97538.63;;;14.04;100.00
44001;BME280;29660;42.892;24.710;2023-09-08T01:11:35;97396.22;;;13.12;100.00
44001;BME280;29660;42.892;24.710;2023-09-08T01:16:58;97579.97;;;14.30;100.00
44001;BME280;29660;42.892;24.710;2023-09-08T01:27:57;97581.34;;;14.14;100.00
44001;BME280;29660;42.892;24.710;2023-09-08T01:33:22;97536.00;;;13.85;100.00
44001;BME280;29660;42.892;24.710;2023-09-08T01:38:44;97554.69;;;13.90;100.00
44001;BME280;29660;42.892;24.710;2023-09-08T01:44:06;97578.34;;;14.02;100.00
44001;BME280;29660;42.892;24.710;2023-09-08T01:49:32;97582.13;;;14.00;100.00
44001;BME280;29660;42.892;24.710;2023-09-08T01:54:57;97583.81;;;13.96;100.00
44001;BME280;29660;42.892;24.710;2023-09-08T02:00:19;97582.38;;;13.85;100.00
44001;BME280;29660;42.892;24.710;2023-09-08T02:05:41;97576.59;;;13.78;100.00
44001;BME280;29660;42.892;24.710;2023-09-08T02:11:04;97584.38;;;13.61;100.00
44001;BME280;29660;42.892;24.710;2023-09-08T02:16:26;97402.09;;;12.44;100.00
44001;BME280;29660;42.892;24.710;2023-09-08T02:21:48;97590.41;;;13.53;100.00
44001;BME280;29660;42.892;24.710;2023-09-08T02:27:11;97579.75;;;13.47;100.00
44001;BME280;29660;42.892;24.710;2023-09-08T02:32:34;97580.34;;;13.44;100.00
44001;BME280;29660;42.892;24.710;2023-09-08T02:37:56;97577.13;;;13.42;100.00
44001;BME280;29660;42.892;24.710;2023-09-08T02:43:21;97558.59;;;13.27;100.00
44001;BME280;29660;42.892;24.710;2023-09-08T02:48:44;97538.97;;;13.13;100.00
44001;BME280;29660;42.892;24.710;2023-09-08T02:54:06;97542.22;;;13.10;100.00
44001;BME280;29660;42.892;24.710;2023-09-08T02:59:28;97496.03;;;12.80;100.00
44001;BME280;29660;42.892;24.710;2023-09-08T03:04:50;97478.28;;;12.65;100.00
44001;BME280;29660;42.892;24.710;2023-09-08T03:10:13;97570.03;;;13.14;100.00
44001;BME280;29660;42.892;24.710;2023-09-08T03:15:36;97578.75;;;13.00;100.00
44001;BME280;29660;42.892;24.710;2023-09-08T03:20:59;97537.16;;;12.89;100.00
44001;BME280;29660;42.892;24.710;2023-09-08T03:26:22;97495.75;;;12.63;100.00
44001;BME280;29660;42.892;24.710;2023-09-08T03:31:44;97261.22;;;11.11;100.00
44001;BME280;29660;42.892;24.710;2023-09-08T03:37:06;97563.56;;;12.96;100.00
44001;BME280;29660;42.892;24.710;2023-09-08T03:42:29;97543.44;;;12.80;100.00
44001;BME280;29660;42.892;24.710;2023-09-08T03:47:51;97575.66;;;12.93;100.00
44001;BME280;29660;42.892;24.710;2023-09-08T03:53:13;97568.13;;;12.95;100.00
44001;BME280;29660;42.892;24.710;2023-09-08T03:58:35;97568.78;;;13.06;100.00
44001;BME280;29660;42.892;24.710;2023-09-08T04:03:59;97568.50;;;13.08;100.00
44001;BME280;29660;42.892;24.710;2023-09-08T04:09:21;97541.13;;;12.92;100.00
44001;BME280;29660;42.892;24.710;2023-09-08T04:14:43;97559.88;;;13.11;100.00
44001;BME280;29660;42.892;24.710;2023-09-08T04:20:07;97545.34;;;12.98;100.00
44001;BME280;29660;42.892;24.710;2023-09-08T04:25:32;97585.41;;;13.27;100.00
44001;BME280;29660;42.892;24.710;2023-09-08T04:30:54;97585.31;;;13.32;100.00
44001;BME280;29660;42.892;24.710;2023-09-08T04:36:18;97591.34;;;13.43;100.00
44001;BME280;29660;42.892;24.710;2023-09-08T04:41:40;97478.63;;;12.83;100.00
44001;BME280;29660;42.892;24.710;2023-09-08T04:47:03;97538.94;;;13.37;100.00
44001;BME280;29660;42.892;24.710;2023-09-08T04:52:26;97589.91;;;13.83;100.00
44001;BME280;29660;42.892;24.710;2023-09-08T04:57:49;97594.44;;;14.02;100.00
44001;BME280;29660;42.892;24.710;2023-09-08T05:03:11;97588.94;;;14.25;100.00
44001;BME280;29660;42.892;24.710;2023-09-08T05:08:33;97590.28;;;14.56;100.00
44001;BME280;29660;42.892;24.710;2023-09-08T05:13:56;97492.56;;;14.15;100.00
44001;BME280;29660;42.892;24.710;2023-09-08T05:19:20;97480.44;;;14.32;100.00
44001;BME280;29660;42.892;24.710;2023-09-08T05:24:42;97588.94;;;15.22;100.00
44001;BME280;29660;42.892;24.710;2023-09-08T05:30:05;97581.53;;;15.41;100.00
44001;BME280;29660;42.892;24.710;2023-09-08T05:35:30;97583.88;;;15.57;100.00
44001;BME280;29660;42.892;24.710;2023-09-08T05:40:52;97582.00;;;15.80;100.00
44001;BME280;29660;42.892;24.710;2023-09-08T05:46:15;97587.69;;;16.01;100.00
44001;BME280;29660;42.892;24.710;2023-09-08T05:51:38;97571.69;;;15.95;100.00
44001;BME280;29660;42.892;24.710;2023-09-08T05:57:00;97556.09;;;16.15;100.00
44001;BME280;29660;42.892;24.710;2023-09-08T06:02:24;97588.75;;;16.53;100.00
44001;BME280;29660;42.892;24.710;2023-09-08T06:07:46;97576.19;;;16.80;100.00
44001;BME280;29660;42.892;24.710;2023-09-08T06:13:26;97580.22;;;17.17;100.00
44001;BME280;29660;42.892;24.710;2023-09-08T06:18:49;97572.00;;;17.39;100.00
44001;BME280;29660;42.892;24.710;2023-09-08T06:24:13;97529.03;;;17.34;100.00
44001;BME280;29660;42.892;24.710;2023-09-08T06:29:36;97572.19;;;17.86;100.00
44001;BME280;29660;42.892;24.710;2023-09-08T06:35:19;97573.56;;;18.10;100.00
44001;BME280;29660;42.892;24.710;2023-09-08T06:40:42;97509.31;;;17.86;100.00
44001;BME280;29660;42.892;24.710;2023-09-08T06:46:04;97502.88;;;18.17;100.00
44001;BME280;29660;42.892;24.710;2023-09-08T06:51:28;97571.94;;;19.03;100.00
44001;BME280;29660;42.892;24.710;2023-09-08T06:56:50;97504.00;;;18.83;98.81
44001;BME280;29660;42.892;24.710;2023-09-08T07:02:13;97482.47;;;18.96;95.68
44001;BME280;29660;42.892;24.710;2023-09-08T07:07:35;97579.06;;;19.91;91.78
44001;BME280;29660;42.892;24.710;2023-09-08T07:12:58;97585.94;;;20.34;88.81
44001;BME280;29660;42.892;24.710;2023-09-08T07:18:21;97556.50;;;20.45;88.24
44001;BME280;29660;42.892;24.710;2023-09-08T07:23:44;97567.38;;;20.94;84.42
44001;BME280;29660;42.892;24.710;2023-09-08T07:29:08;97564.53;;;21.15;79.61
44001;BME280;29660;42.892;24.710;2023-09-08T07:34:31;97577.16;;;21.47;77.94
44001;BME280;29660;42.892;24.710;2023-09-08T07:39:53;97575.59;;;21.74;74.44
44001;BME280;29660;42.892;24.710;2023-09-08T07:45:15;97575.00;;;22.09;70.14
44001;BME280;29660;42.892;24.710;2023-09-08T07:50:37;97516.22;;;21.89;70.50
44001;BME280;29660;42.892;24.710;2023-09-08T07:56:00;97574.34;;;22.44;68.63
44001;BME280;29660;42.892;24.710;2023-09-08T08:01:23;97571.47;;;22.68;66.94
44001;BME280;29660;42.892;24.710;2023-09-08T08:06:45;97526.91;;;22.73;62.91
44001;BME280;29660;42.892;24.710;2023-09-08T08:12:09;97477.91;;;22.53;60.32
44001;BME280;29660;42.892;24.710;2023-09-08T08:17:31;97554.34;;;23.35;58.97
44001;BME280;29660;42.892;24.710;2023-09-08T08:22:54;97560.78;;;23.65;59.01
44001;BME280;29660;42.892;24.710;2023-09-08T08:28:16;97550.78;;;23.69;58.16
44001;BME280;29660;42.892;24.710;2023-09-08T08:33:38;97544.72;;;23.99;56.47
44001;BME280;29660;42.892;24.710;2023-09-08T08:39:00;97549.16;;;24.07;51.90
44001;BME280;29660;42.892;24.710;2023-09-08T08:44:25;97546.25;;;24.19;53.04
44001;BME280;29660;42.892;24.710;2023-09-08T08:49:48;97526.19;;;24.08;50.99
44001;BME280;29660;42.892;24.710;2023-09-08T08:55:12;97308.94;;;22.51;51.41
44001;BME280;29660;42.892;24.710;2023-09-08T09:00:35;97544.81;;;24.25;51.33
44001;BME280;29660;42.892;24.710;2023-09-08T09:06:01;97540.28;;;24.33;51.03
44001;BME280;29660;42.892;24.710;2023-09-08T09:11:23;97439.97;;;23.73;50.23
44001;BME280;29660;42.892;24.710;2023-09-08T09:16:46;97543.56;;;24.42;49.23
44001;BME280;29660;42.892;24.710;2023-09-08T09:22:09;97527.59;;;24.41;49.09
44001;BME280;29660;42.892;24.710;2023-09-08T09:27:31;97542.63;;;24.35;49.98
44001;BME280;29660;42.892;24.710;2023-09-08T09:33:02;97182.00;;;22.33;49.38
44001;BME280;29660;42.892;24.710;2023-09-08T09:38:26;97539.19;;;24.38;49.18
44001;BME280;29660;42.892;24.710;2023-09-08T09:43:49;97469.81;;;23.89;49.73
44001;BME280;29660;42.892;24.710;2023-09-08T09:49:13;97524.28;;;24.55;49.96
44001;BME280;29660;42.892;24.710;2023-09-08T09:54:36;97525.66;;;24.68;47.92
44001;BME280;29660;42.892;24.710;2023-09-08T09:59:59;97518.00;;;24.51;47.93
44001;BME280;29660;42.892;24.710;2023-09-08T10:05:23;97527.50;;;24.60;48.33
44001;BME280;29660;42.892;24.710;2023-09-08T10:10:46;97532.78;;;24.49;48.43
44001;BME280;29660;42.892;24.710;2023-09-08T10:16:13;97485.22;;;24.47;47.50
44001;BME280;29660;42.892;24.710;2023-09-08T10:21:40;97515.34;;;24.81;48.21
44001;BME280;29660;42.892;24.710;2023-09-08T10:27:08;97350.13;;;24.00;47.16
44001;BME280;29660;42.892;24.710;2023-09-08T10:32:35;97505.16;;;24.78;47.51
44001;BME280;29660;42.892;24.710;2023-09-08T10:38:24;97528.59;;;24.82;47.33
44001;BME280;29660;42.892;24.710;2023-09-08T10:43:55;97504.72;;;25.29;45.59
44001;BME280;29660;42.892;24.710;2023-09-08T10:49:20;97505.16;;;25.34;44.50
44001;BME280;29660;42.892;24.710;2023-09-08T10:54:50;97497.22;;;25.89;45.58
44001;BME280;29660;42.892;24.710;2023-09-08T11:00:17;97447.59;;;25.50;45.07
44001;BME280;29660;42.892;24.710;2023-09-08T11:05:41;97485.28;;;25.67;46.05
44001;BME280;29660;42.892;24.710;2023-09-08T11:11:06;97480.72;;;25.45;46.08
44001;BME280;29660;42.892;24.710;2023-09-08T11:16:28;97474.78;;;25.36;46.14
44001;BME280;29660;42.892;24.710;2023-09-08T11:21:53;97479.56;;;25.46;46.68
44001;BME280;29660;42.892;24.710;2023-09-08T11:27:16;97458.09;;;25.82;46.12
44001;BME280;29660;42.892;24.710;2023-09-08T11:32:38;97295.41;;;25.06;45.01
44001;BME280;29660;42.892;24.710;2023-09-08T11:38:01;97445.59;;;26.22;44.16
44001;BME280;29660;42.892;24.710;2023-09-08T11:43:27;97434.66;;;26.77;43.96
44001;BME280;29660;42.892;24.710;2023-09-08T11:48:50;97430.13;;;27.09;43.50
44001;BME280;29660;42.892;24.710;2023-09-08T11:54:12;97411.47;;;27.40;41.44
44001;BME280;29660;42.892;24.710;2023-09-08T11:59:35;97419.34;;;27.56;41.09
44001;BME280;29660;42.892;24.710;2023-09-08T12:04:57;97399.03;;;27.89;41.17
44001;BME280;29660;42.892;24.710;2023-09-08T12:10:20;97280.75;;;27.30;41.23
44001;BME280;29660;42.892;24.710;2023-09-08T12:15:43;97405.66;;;27.59;40.99
44001;BME280;29660;42.892;24.710;2023-09-08T12:21:06;97276.63;;;26.52;42.57
44001;BME280;29660;42.892;24.710;2023-09-08T12:26:28;97397.66;;;27.04;43.47
44001;BME280;29660;42.892;24.710;2023-09-08T12:31:52;97390.88;;;26.77;42.20
44001;BME280;29660;42.892;24.710;2023-09-08T12:37:14;97380.63;;;26.59;41.71
44001;BME280;29660;42.892;24.710;2023-09-08T12:42:36;97381.84;;;26.69;42.51
44001;BME280;29660;42.892;24.710;2023-09-08T12:48:02;97359.97;;;26.76;40.96
44001;BME280;29660;42.892;24.710;2023-09-08T12:53:24;97361.97;;;26.83;40.47
44001;BME280;29660;42.892;24.710;2023-09-08T12:58:46;97349.50;;;26.92;40.11
44001;BME280;29660;42.892;24.710;2023-09-08T13:04:09;97267.25;;;26.50;40.90
44001;BME280;29660;42.892;24.710;2023-09-08T13:09:31;97348.84;;;27.21;40.59
44001;BME280;29660;42.892;24.710;2023-09-08T13:14:53;97324.84;;;26.85;40.51
44001;BME280;29660;42.892;24.710;2023-09-08T13:20:15;97344.84;;;27.07;39.52
44001;BME280;29660;42.892;24.710;2023-09-08T13:25:37;97272.72;;;26.50;40.33
44001;BME280;29660;42.892;24.710;2023-09-08T13:30:59;97235.91;;;26.36;40.48
44001;BME280;29660;42.892;24.710;2023-09-08T13:36:22;97340.22;;;27.26;40.23
44001;BME280;29660;42.892;24.710;2023-09-08T13:47:09;97349.19;;;27.15;41.38
44001;BME280;29660;42.892;24.710;2023-09-08T13:52:31;97269.16;;;26.42;42.44
44001;BME280;29660;42.892;24.710;2023-09-08T13:57:54;97365.69;;;26.46;44.31
44001;BME280;29660;42.892;24.710;2023-09-08T14:03:17;97273.13;;;25.38;45.54
44001;BME280;29660;42.892;24.710;2023-09-08T14:08:42;97370.97;;;25.73;45.96
44001;BME280;29660;42.892;24.710;2023-09-08T14:14:15;97375.88;;;25.53;46.66
44001;BME280;29660;42.892;24.710;2023-09-08T14:19:37;97377.38;;;25.47;47.29
44001;BME280;29660;42.892;24.710;2023-09-08T14:24:59;97362.97;;;25.54;47.77
44001;BME280;29660;42.892;24.710;2023-09-08T14:30:21;97368.16;;;25.66;47.31
44001;BME280;29660;42.892;24.710;2023-09-08T14:35:43;97248.69;;;24.74;47.68
44001;BME280;29660;42.892;24.710;2023-09-08T14:41:07;97273.03;;;24.90;48.33
44001;BME280;29660;42.892;24.710;2023-09-08T14:46:30;97368.84;;;25.52;49.81
44001;BME280;29660;42.892;24.710;2023-09-08T14:51:52;97370.72;;;25.44;50.24
44001;BME280;29660;42.892;24.710;2023-09-08T14:57:14;97184.63;;;24.23;49.29
44001;BME280;29660;42.892;24.710;2023-09-08T15:02:36;97364.66;;;25.25;48.09
44001;BME280;29660;42.892;24.710;2023-09-08T15:07:59;97361.84;;;25.17;48.75
44001;BME280;29660;42.892;24.710;2023-09-08T15:13:21;97356.75;;;25.12;48.73
44001;BME280;29660;42.892;24.710;2023-09-08T15:18:44;97353.81;;;24.98;48.84
44001;BME280;29660;42.892;24.710;2023-09-08T15:24:07;97356.53;;;24.98;49.53
44001;BME280;29660;42.892;24.710;2023-09-08T15:29:29;97358.78;;;24.89;50.21
44001;BME280;29660;42.892;24.710;2023-09-08T15:34:51;97370.13;;;24.94;51.17
44001;BME280;29660;42.892;24.710;2023-09-08T15:40:14;97362.53;;;24.77;51.75
44001;BME280;29660;42.892;24.710;2023-09-08T15:45:36;97369.75;;;24.62;52.39
44001;BME280;29660;42.892;24.710;2023-09-08T15:50:58;97278.63;;;23.80;53.80
44001;BME280;29660;42.892;24.710;2023-09-08T15:56:20;97361.03;;;24.27;54.18
44001;BME280;29660;42.892;24.710;2023-09-08T16:01:43;97348.34;;;24.11;55.12
44001;BME280;29660;42.892;24.710;2023-09-08T16:07:05;97374.81;;;24.11;56.12
44001;BME280;29660;42.892;24.710;2023-09-08T16:12:27;97375.88;;;24.03;56.81
44001;BME280;29660;42.892;24.710;2023-09-08T16:17:49;97381.88;;;23.89;58.27
44001;BME280;29660;42.892;24.710;2023-09-08T16:23:11;97385.75;;;23.88;59.82
44001;BME280;29660;42.892;24.710;2023-09-08T16:28:34;97388.78;;;23.83;61.58
44001;BME280;29660;42.892;24.710;2023-09-08T16:33:56;97385.94;;;23.75;61.06
44001;BME280;29660;42.892;24.710;2023-09-08T16:39:18;97394.34;;;23.67;61.80
44001;BME280;29660;42.892;24.710;2023-09-08T16:44:41;97385.97;;;23.56;64.04
44001;BME280;29660;42.892;24.710;2023-09-08T16:50:05;97397.75;;;23.41;72.44
44001;BME280;29660;42.892;24.710;2023-09-08T16:55:28;97292.84;;;22.62;76.52
44001;BME280;29660;42.892;24.710;2023-09-08T17:00:50;97399.94;;;23.12;77.71
44001;BME280;29660;42.892;24.710;2023-09-08T17:06:12;97400.50;;;23.02;79.60
44001;BME280;29660;42.892;24.710;2023-09-08T17:11:35;97412.94;;;22.84;81.16
44001;BME280;29660;42.892;24.710;2023-09-08T17:17:00;97418.22;;;22.76;80.64
44001;BME280;29660;42.892;24.710;2023-09-08T17:22:23;97413.84;;;22.72;82.36
44001;BME280;29660;42.892;24.710;2023-09-08T17:27:45;97424.41;;;22.58;85.08
44001;BME280;29660;42.892;24.710;2023-09-08T17:33:07;97430.75;;;22.46;87.09
44001;BME280;29660;42.892;24.710;2023-09-08T17:38:30;97428.47;;;22.48;89.63
44001;BME280;29660;42.892;24.710;2023-09-08T17:43:53;97342.81;;;21.71;88.77
44001;BME280;29660;42.892;24.710;2023-09-08T17:49:15;97424.25;;;22.03;90.44
44001;BME280;29660;42.892;24.710;2023-09-08T17:54:38;97327.72;;;21.26;91.77
44001;BME280;29660;42.892;24.710;2023-09-08T18:00:01;97441.97;;;21.97;92.77
44001;BME280;29660;42.892;24.710;2023-09-08T18:05:24;97447.31;;;21.77;95.86
44001;BME280;29660;42.892;24.710;2023-09-08T18:10:48;97424.41;;;21.47;96.24
44001;BME280;29660;42.892;24.710;2023-09-08T18:16:10;97464.84;;;21.52;97.91
44001;BME280;29660;42.892;24.710;2023-09-08T18:21:32;97458.13;;;21.33;99.87
44001;BME280;29660;42.892;24.710;2023-09-08T18:26:54;97300.81;;;19.97;100.00
44001;BME280;29660;42.892;24.710;2023-09-08T18:32:16;97478.69;;;20.94;100.00
44001;BME280;29660;42.892;24.710;2023-09-08T18:37:39;97481.66;;;20.77;100.00
44001;BME280;29660;42.892;24.710;2023-09-08T18:43:01;97476.81;;;20.58;100.00
44001;BME280;29660;42.892;24.710;2023-09-08T18:48:23;97452.88;;;20.23;100.00
44001;BME280;29660;42.892;24.710;2023-09-08T18:53:46;97331.75;;;19.26;100.00
44001;BME280;29660;42.892;24.710;2023-09-08T18:59:08;97477.81;;;20.04;100.00
44001;BME280;29660;42.892;24.710;2023-09-08T19:04:30;97460.50;;;19.84;100.00
44001;BME280;29660;42.892;24.710;2023-09-08T19:09:53;97475.00;;;19.68;100.00
44001;BME280;29660;42.892;24.710;2023-09-08T19:15:16;97470.06;;;19.49;100.00
44001;BME280;29660;42.892;24.710;2023-09-08T19:20:39;97464.34;;;19.29;100.00
44001;BME280;29660;42.892;24.710;2023-09-08T19:26:07;97421.38;;;18.82;100.00
44001;BME280;29660;42.892;24.710;2023-09-08T19:31:29;97470.94;;;18.86;100.00
44001;BME280;29660;42.892;24.710;2023-09-08T19:36:51;97453.38;;;18.72;100.00
44001;BME280;29660;42.892;24.710;2023-09-08T19:42:14;97469.72;;;18.67;100.00
44001;BME280;29660;42.892;24.710;2023-09-08T19:47:37;97325.00;;;17.64;100.00
44001;BME280;29660;42.892;24.710;2023-09-08T19:53:00;97466.72;;;18.38;100.00
44001;BME280;29660;42.892;24.710;2023-09-08T19:58:25;97458.88;;;18.25;100.00
44001;BME280;29660;42.892;24.710;2023-09-08T20:03:47;97467.16;;;18.11;100.00
44001;BME280;29660;42.892;24.710;2023-09-08T20:09:10;97469.94;;;17.94;100.00
44001;BME280;29660;42.892;24.710;2023-09-08T20:14:35;97466.19;;;17.77;100.00
44001;BME280;29660;42.892;24.710;2023-09-08T20:19:57;97475.84;;;17.78;100.00
44001;BME280;29660;42.892;24.710;2023-09-08T20:25:19;97461.44;;;17.57;100.00
44001;BME280;29660;42.892;24.710;2023-09-08T20:30:41;97489.69;;;17.42;100.00
44001;BME280;29660;42.892;24.710;2023-09-08T20:36:04;97458.97;;;17.26;100.00
44001;BME280;29660;42.892;24.710;2023-09-08T20:41:26;97429.94;;;16.97;100.00
44001;BME280;29660;42.892;24.710;2023-09-08T20:46:49;97399.19;;;16.63;100.00
44001;BME280;29660;42.892;24.710;2023-09-08T20:52:11;97471.94;;;16.98;100.00
44001;BME280;29660;42.892;24.710;2023-09-08T20:57:36;97463.31;;;16.69;100.00
44001;BME280;29660;42.892;24.710;2023-09-08T21:03:00;97470.75;;;16.55;100.00
44001;BME280;29660;42.892;24.710;2023-09-08T21:08:27;97351.19;;;15.73;100.00
44001;BME280;29660;42.892;24.710;2023-09-08T21:13:52;97471.97;;;16.40;100.00
44001;BME280;29660;42.892;24.710;2023-09-08T21:19:21;97477.47;;;16.27;100.00
44001;BME280;29660;42.892;24.710;2023-09-08T21:24:45;97460.63;;;16.04;100.00
44001;BME280;29660;42.892;24.710;2023-09-08T21:30:10;97478.81;;;16.07;100.00
44001;BME280;29660;42.892;24.710;2023-09-08T21:35:32;97487.28;;;15.91;100.00
44001;BME280;29660;42.892;24.710;2023-09-08T21:41:19;97489.66;;;15.84;100.00
44001;BME280;29660;42.892;24.710;2023-09-08T21:46:44;97492.34;;;15.84;100.00
44001;BME280;29660;42.892;24.710;2023-09-08T21:52:07;97490.44;;;15.62;100.00
44001;BME280;29660;42.892;24.710;2023-09-08T21:57:32;97489.88;;;15.52;100.00
44001;BME280;29660;42.892;24.710;2023-09-08T22:02:55;97473.03;;;15.37;100.00
44001;BME280;29660;42.892;24.710;2023-09-08T22:08:17;97351.59;;;14.45;100.00
44001;BME280;29660;42.892;24.710;2023-09-08T22:13:41;97366.72;;;14.55;100.00
44001;BME280;29660;42.892;24.710;2023-09-08T22:19:08;97331.81;;;14.19;100.00
44001;BME280;29660;42.892;24.710;2023-09-08T22:24:31;97481.69;;;15.12;100.00
44001;BME280;29660;42.892;24.710;2023-09-08T22:29:53;97478.53;;;15.10;100.00
44001;BME280;29660;42.892;24.710;2023-09-08T22:35:15;97478.16;;;15.03;100.00
44001;BME280;29660;42.892;24.710;2023-09-08T22:40:38;97482.34;;;14.95;100.00
44001;BME280;29660;42.892;24.710;2023-09-08T22:46:00;97468.47;;;14.79;100.00
44001;BME280;29660;42.892;24.710;2023-09-08T22:51:24;97466.09;;;14.64;100.00
44001;BME280;29660;42.892;24.710;2023-09-08T22:56:48;97463.63;;;14.54;100.00
44001;BME280;29660;42.892;24.710;2023-09-08T23:02:11;97485.88;;;14.40;100.00
44001;BME280;29660;42.892;24.710;2023-09-08T23:07:33;97452.78;;;14.45;100.00
44001;BME280;29660;42.892;24.710;2023-09-08T23:12:56;97452.59;;;14.41;100.00
44001;BME280;29660;42.892;24.710;2023-09-08T23:18:19;97344.84;;;13.70;100.00
44001;BME280;29660;42.892;24.710;2023-09-08T23:23:43;97438.28;;;14.32;100.00
44001;BME280;29660;42.892;24.710;2023-09-08T23:29:05;97437.50;;;14.18;100.00
